Time;durP1;ratioP1;P1;durP2;ratioP2;P2;SDS_P1;SDS_P2;PMS_P1;PMS_P2;Temp;Humidity;BMP_temperature;BMP_pressure;BME280_temperature;BME280_humidity;BME280_pressure;Samples;Min_cycle;Max_cycle;Signal;HPM_P1;HPM_P2
2023/04/10 00:02:11;;;;;;;;;8.00;5.67;;;;;;;;6336130;22;45447;-78
2023/04/10 00:04:36;;;;;;;;;7.00;5.25;;;;;;;;6336219;22;45391;-78
2023/04/10 00:07:01;;;;;;;;;5.00;4.00;;;;;;;;6335815;22;46110;-78
2023/04/10 00:09:27;;;;;;;;;3.33;2.00;;;;;;;;6336364;22;45328;-78
2023/04/10 00:11:53;;;;;;;;;4.75;3.25;;;;;;;;6336184;22;45319;-78
2023/04/10 00:14:22;;;;;;;;;9.00;4.25;;;;;;;;6336502;22;45303;-77
2023/04/10 00:16:47;;;;;;;;;7.75;5.75;;;;;;;;6335503;22;46335;-78
2023/04/10 00:19:12;;;;;;;;;8.25;4.00;;;;;;;;6335885;22;45228;-78
2023/04/10 00:21:37;;;;;;;;;5.00;4.00;;;;;;;;6336171;22;45280;-78
2023/04/10 00:24:03;;;;;;;;;5.67;4.00;;;;;;;;6336213;22;45267;-78
2023/04/10 00:26:28;;;;;;;;;4.50;4.50;;;;;;;;6335660;22;46068;-78
2023/04/10 00:28:53;;;;;;;;;4.67;3.00;;;;;;;;6336305;22;45181;-78
2023/04/10 00:31:19;;;;;;;;;5.00;3.67;;;;;;;;6335485;22;45183;-78
2023/04/10 00:33:44;;;;;;;;;9.67;6.33;;;;;;;;6336504;22;45411;-78
2023/04/10 00:36:09;;;;;;;;;7.00;3.00;;;;;;;;6335785;22;47273;-78
2023/04/10 00:38:36;;;;;;;;;4.75;4.00;;;;;;;;6335674;22;45215;-78
2023/04/10 00:41:01;;;;;;;;;5.50;4.50;;;;;;;;6336090;22;45297;-78
2023/04/10 00:43:26;;;;;;;;;7.33;5.00;;;;;;;;6335996;22;45360;-78
2023/04/10 00:45:51;;;;;;;;;6.33;6.33;;;;;;;;6335580;22;46596;-78
2023/04/10 00:48:17;;;;;;;;;7.33;5.00;;;;;;;;6335896;22;45283;-78
2023/04/10 00:50:42;;;;;;;;;6.75;3.00;;;;;;;;6336192;22;45532;-78
2023/04/10 00:53:07;;;;;;;;;4.00;4.00;;;;;;;;6335883;22;45467;-78
2023/04/10 00:55:32;;;;;;;;;10.00;7.00;;;;;;;;6335876;22;45255;-79
2023/04/10 00:57:58;;;;;;;;;5.67;4.00;;;;;;;;6335874;22;45216;-78
2023/04/10 01:00:23;;;;;;;;;8.00;4.67;;;;;;;;6335941;22;45294;-78
2023/04/10 01:02:48;;;;;;;;;5.67;4.00;;;;;;;;6335995;22;45447;-78
2023/04/10 01:05:13;;;;;;;;;8.67;4.00;;;;;;;;6335951;22;46341;-78
2023/04/10 01:08:14;;;;;;;;;4.00;4.00;;;;;;;;6335924;22;45282;-78
2023/04/10 01:10:55;;;;;;;;;7.00;4.00;;;;;;;;6208798;22;45328;-78
2023/04/10 01:13:21;;;;;;;;;5.50;4.25;;;;;;;;6208423;22;45542;-79
2023/04/10 01:15:51;;;;;;;;;4.75;3.00;;;;;;;;6208517;22;45396;-78
2023/04/10 01:18:32;;;;;;;;;5.00;3.75;;;;;;;;6210148;22;45329;-78
2023/04/10 01:21:00;;;;;;;;;6.75;3.50;;;;;;;;6209917;22;45422;-78
2023/04/10 01:23:43;;;;;;;;;2.75;2.75;;;;;;;;6210361;22;45431;-78
2023/04/10 01:26:10;;;;;;;;;8.25;4.00;;;;;;;;6184192;22;47251;-78
2023/04/10 01:28:52;;;;;;;;;4.00;3.25;;;;;;;;6209459;22;45717;-78
2023/04/10 01:31:20;;;;;;;;;8.00;4.00;;;;;;;;6210263;22;45326;-77
2023/04/10 01:33:50;;;;;;;;;4.25;4.25;;;;;;;;6209961;22;45259;-77
2023/04/10 01:36:29;;;;;;;;;6.25;3.00;;;;;;;;6209871;22;46660;-77
2023/04/10 01:38:55;;;;;;;;;4.75;3.25;;;;;;;;6210299;22;45403;-77
2023/04/10 01:41:21;;;;;;;;;6.00;6.00;;;;;;;;6210469;22;45317;-78
2023/04/10 01:43:48;;;;;;;;;5.00;3.00;;;;;;;;6227820;22;45225;-78
2023/04/10 01:46:13;;;;;;;;;3.25;3.00;;;;;;;;6336943;22;46439;-78
2023/04/10 01:48:39;;;;;;;;;6.25;4.75;;;;;;;;6337039;22;45233;-78
2023/04/10 01:51:05;;;;;;;;;8.00;3.00;;;;;;;;6336368;22;45263;-77
2023/04/10 01:53:31;;;;;;;;;7.75;3.75;;;;;;;;6337182;22;45300;-78
2023/04/10 01:55:57;;;;;;;;;4.25;4.00;;;;;;;;6336336;22;46431;-77
2023/04/10 01:58:22;;;;;;;;;4.75;3.25;;;;;;;;6336521;22;45253;-77
2023/04/10 02:00:47;;;;;;;;;8.00;3.00;;;;;;;;6337189;22;45338;-78
2023/04/10 02:03:12;;;;;;;;;5.00;3.25;;;;;;;;6336636;22;45450;-77
2023/04/10 02:06:04;;;;;;;;;3.00;3.00;;;;;;;;6336382;22;46855;-78
2023/04/10 02:08:47;;;;;;;;;9.00;3.00;;;;;;;;6336337;22;45765;-77
2023/04/10 02:11:16;;;;;;;;;3.00;3.00;;;;;;;;6337213;22;45222;-78
2023/04/10 02:13:41;;;;;;;;;7.00;4.25;;;;;;;;6336293;22;45529;-78
2023/04/10 02:16:08;;;;;;;;;4.00;2.00;;;;;;;;6336875;22;46421;-78
2023/04/10 02:18:34;;;;;;;;;3.00;3.00;;;;;;;;6336484;22;45221;-78
2023/04/10 02:21:00;;;;;;;;;3.50;2.50;;;;;;;;6336661;22;45230;-78
2023/04/10 02:23:25;;;;;;;;;3.50;3.25;;;;;;;;6337063;22;45225;-78
2023/04/10 02:25:50;;;;;;;;;2.33;1.33;;;;;;;;6336847;22;45991;-79
2023/04/10 02:28:16;;;;;;;;;4.00;3.00;;;;;;;;6335960;22;45236;-78
2023/04/10 02:30:41;;;;;;;;;5.00;3.67;;;;;;;;6336984;22;45372;-78
2023/04/10 02:33:06;;;;;;;;;3.67;3.33;;;;;;;;6337163;22;45418;-78
2023/04/10 02:35:32;;;;;;;;;4.33;3.00;;;;;;;;6336478;22;46908;-78
2023/04/10 02:37:57;;;;;;;;;3.00;3.00;;;;;;;;6335868;22;45486;-77
2023/04/10 02:40:22;;;;;;;;;4.33;3.00;;;;;;;;6336456;22;45537;-76
2023/04/10 02:42:48;;;;;;;;;4.00;3.00;;;;;;;;6336288;22;45241;-78
2023/04/10 02:45:13;;;;;;;;;3.00;2.00;;;;;;;;6336706;22;46561;-78
2023/04/10 02:47:38;;;;;;;;;3.00;3.00;;;;;;;;6336542;22;45408;-78
2023/04/10 02:50:03;;;;;;;;;3.00;3.00;;;;;;;;6336422;22;45313;-78
2023/04/10 02:52:29;;;;;;;;;4.75;4.75;;;;;;;;6336591;22;45339;-77
2023/04/10 02:54:54;;;;;;;;;2.00;2.00;;;;;;;;6335653;22;46355;-78
2023/04/10 02:57:20;;;;;;;;;5.25;2.00;;;;;;;;6336163;22;45445;-80
2023/04/10 02:59:48;;;;;;;;;1.50;1.00;;;;;;;;6336482;22;45232;-78
2023/04/10 03:02:13;;;;;;;;;4.00;2.75;;;;;;;;6336945;22;45268;-78
2023/04/10 03:04:38;;;;;;;;;2.67;2.67;;;;;;;;6336702;22;45259;-78
2023/04/10 03:07:04;;;;;;;;;4.00;2.33;;;;;;;;6336693;22;45287;-78
2023/04/10 03:09:29;;;;;;;;;5.25;3.00;;;;;;;;6336387;22;45214;-78
2023/04/10 03:11:54;;;;;;;;;2.00;2.00;;;;;;;;6334847;22;45393;-78
2023/04/10 03:14:20;;;;;;;;;8.25;3.00;;;;;;;;6335849;22;46981;-77
2023/04/10 03:16:46;;;;;;;;;4.33;3.00;;;;;;;;6336696;22;45513;-77
2023/04/10 03:19:11;;;;;;;;;3.00;3.00;;;;;;;;6336794;22;45288;-77
2023/04/10 03:21:37;;;;;;;;;3.00;3.00;;;;;;;;6336694;22;45433;-77
2023/04/10 03:24:02;;;;;;;;;5.50;3.25;;;;;;;;6335571;22;45268;-77
2023/04/10 03:26:27;;;;;;;;;2.00;2.00;;;;;;;;6336707;22;45327;-77
2023/04/10 03:28:52;;;;;;;;;2.67;2.67;;;;;;;;6336796;22;45546;-77
2023/04/10 03:31:18;;;;;;;;;10.00;5.67;;;;;;;;6336260;22;45474;-77
2023/04/10 03:33:43;;;;;;;;;4.00;3.00;;;;;;;;6336198;22;45989;-78
2023/04/10 03:36:08;;;;;;;;;3.67;3.67;;;;;;;;6336379;22;45438;-78
2023/04/10 03:38:33;;;;;;;;;2.75;2.75;;;;;;;;6336022;22;45330;-77
2023/04/10 03:40:58;;;;;;;;;4.67;2.00;;;;;;;;6336148;22;45287;-77
2023/04/10 03:43:24;;;;;;;;;3.67;3.00;;;;;;;;6335945;22;45940;-77
2023/04/10 03:45:49;;;;;;;;;8.00;3.00;;;;;;;;6336580;22;45334;-77
2023/04/10 03:48:15;;;;;;;;;3.33;3.33;;;;;;;;6336565;22;45297;-77
2023/04/10 03:50:40;;;;;;;;;2.50;2.50;;;;;;;;6336663;22;45250;-77
2023/04/10 03:53:05;;;;;;;;;5.75;3.00;;;;;;;;6336053;22;45259;-78
2023/04/10 03:55:30;;;;;;;;;6.00;3.33;;;;;;;;6335939;22;45452;-77
2023/04/10 03:57:56;;;;;;;;;8.00;4.00;;;;;;;;6336539;22;45389;-78
2023/04/10 04:00:21;;;;;;;;;3.00;2.00;;;;;;;;6336623;22;45468;-77
2023/04/10 04:02:50;;;;;;;;;4.00;4.00;;;;;;;;6336256;22;45279;-78
2023/04/10 04:05:15;;;;;;;;;3.00;3.00;;;;;;;;6336056;22;45229;-78
2023/04/10 04:07:41;;;;;;;;;5.25;3.00;;;;;;;;6336114;22;45132;-77
2023/04/10 04:10:06;;;;;;;;;4.00;3.00;;;;;;;;6336102;22;45143;-77
2023/04/10 04:12:31;;;;;;;;;1.75;1.00;;;;;;;;6335810;22;47183;-77
2023/04/10 04:14:56;;;;;;;;;6.33;2.00;;;;;;;;6334345;22;45394;-77
2023/04/10 04:17:22;;;;;;;;;8.33;3.67;;;;;;;;6336385;22;45354;-78
2023/04/10 04:19:47;;;;;;;;;6.00;4.00;;;;;;;;6336089;22;45486;-78
2023/04/10 04:22:12;;;;;;;;;3.00;2.00;;;;;;;;6335728;22;45157;-78
2023/04/10 04:24:37;;;;;;;;;3.67;3.00;;;;;;;;6336367;22;45305;-77
2023/04/10 04:27:02;;;;;;;;;4.00;2.00;;;;;;;;6336567;22;45265;-77
2023/04/10 04:29:28;;;;;;;;;4.67;3.67;;;;;;;;6336462;22;45275;-77
2023/04/10 04:31:53;;;;;;;;;3.00;2.33;;;;;;;;6335672;22;45614;-77
2023/04/10 04:34:18;;;;;;;;;6.00;4.00;;;;;;;;6335739;22;45348;-77
2023/04/10 04:36:43;;;;;;;;;5.00;3.67;;;;;;;;6336263;22;45518;-77
2023/04/10 04:39:08;;;;;;;;;6.33;3.00;;;;;;;;6336054;22;45478;-77
2023/04/10 04:41:34;;;;;;;;;6.00;4.00;;;;;;;;6335758;22;45927;-77
2023/04/10 04:44:01;;;;;;;;;3.33;3.00;;;;;;;;6336351;22;45291;-77
2023/04/10 04:46:26;;;;;;;;;8.00;6.00;;;;;;;;6336454;22;45224;-77
2023/04/10 04:48:51;;;;;;;;;3.00;3.00;;;;;;;;6335815;22;45202;-78
2023/04/10 04:51:16;;;;;;;;;5.00;4.00;;;;;;;;6334462;22;45563;-77
2023/04/10 04:53:41;;;;;;;;;5.67;5.33;;;;;;;;6336324;22;45402;-78
2023/04/10 04:56:07;;;;;;;;;2.33;1.33;;;;;;;;6336435;22;45326;-79
2023/04/10 04:58:32;;;;;;;;;3.50;2.75;;;;;;;;6336208;22;45265;-77
2023/04/10 05:00:57;;;;;;;;;6.00;3.00;;;;;;;;6335512;22;46985;-78
2023/04/10 05:03:22;;;;;;;;;3.00;3.00;;;;;;;;6336196;22;45387;-78
2023/04/10 05:05:48;;;;;;;;;5.67;3.67;;;;;;;;6335981;22;45300;-78
2023/04/10 05:08:13;;;;;;;;;7.67;4.00;;;;;;;;6335730;22;45190;-78
2023/04/10 05:10:38;;;;;;;;;4.67;4.67;;;;;;;;6335339;22;46182;-78
2023/04/10 05:13:03;;;;;;;;;6.00;3.67;;;;;;;;6335960;22;45174;-77
2023/04/10 05:15:28;;;;;;;;;3.00;3.00;;;;;;;;6336195;22;45344;-78
2023/04/10 05:17:54;;;;;;;;;5.00;3.67;;;;;;;;6335506;22;45307;-78
2023/04/10 05:20:20;;;;;;;;;3.75;2.75;;;;;;;;6335433;22;45241;-78
2023/04/10 05:22:45;;;;;;;;;4.75;3.00;;;;;;;;6335663;22;45332;-78
2023/04/10 05:25:11;;;;;;;;;4.67;3.00;;;;;;;;6336189;22;45240;-77
2023/04/10 05:27:36;;;;;;;;;7.00;6.00;;;;;;;;6335868;22;45186;-77
2023/04/10 05:30:02;;;;;;;;;6.00;2.67;;;;;;;;6335737;22;46234;-77
2023/04/10 05:32:27;;;;;;;;;6.00;3.00;;;;;;;;6335922;22;45300;-78
2023/04/10 05:34:52;;;;;;;;;5.67;3.33;;;;;;;;6335141;22;45323;-78
2023/04/10 05:37:18;;;;;;;;;5.33;4.00;;;;;;;;6336050;22;45487;-78
2023/04/10 05:39:43;;;;;;;;;3.00;3.00;;;;;;;;6335715;22;46370;-78
2023/04/10 05:42:08;;;;;;;;;7.00;4.00;;;;;;;;6335841;22;45352;-78
2023/04/10 05:44:33;;;;;;;;;4.00;3.00;;;;;;;;6335689;22;45319;-78
2023/04/10 05:46:58;;;;;;;;;6.67;3.33;;;;;;;;6335865;22;45453;-78
2023/04/10 05:49:24;;;;;;;;;3.67;3.00;;;;;;;;6334974;22;47203;-78
2023/04/10 05:51:50;;;;;;;;;3.00;3.00;;;;;;;;6335578;22;45386;-78
2023/04/10 05:54:15;;;;;;;;;8.25;4.00;;;;;;;;6335984;22;45266;-78
2023/04/10 05:56:41;;;;;;;;;8.00;5.33;;;;;;;;6335835;22;45641;-78
2023/04/10 05:59:06;;;;;;;;;6.00;3.75;;;;;;;;6335422;22;45235;-78
2023/04/10 06:01:31;;;;;;;;;2.67;2.67;;;;;;;;6335629;22;45301;-78
2023/04/10 06:03:56;;;;;;;;;9.00;7.00;;;;;;;;6336226;22;45503;-78
2023/04/10 06:06:24;;;;;;;;;5.00;3.00;;;;;;;;6337165;22;45492;-78
2023/04/10 06:08:50;;;;;;;;;3.00;3.00;;;;;;;;6336231;22;46547;-78
2023/04/10 06:11:15;;;;;;;;;4.00;4.00;;;;;;;;6337133;22;45328;-78
2023/04/10 06:13:40;;;;;;;;;3.00;1.00;;;;;;;;6337313;22;45519;-77
2023/04/10 06:16:05;;;;;;;;;6.33;4.67;;;;;;;;6337121;22;45410;-78
2023/04/10 06:18:31;;;;;;;;;5.00;3.00;;;;;;;;6336085;22;46451;-78
2023/04/10 06:20:59;;;;;;;;;5.33;3.33;;;;;;;;6336607;22;45262;-78
2023/04/10 06:23:24;;;;;;;;;6.50;4.25;;;;;;;;6337069;22;45267;-78
2023/04/10 06:25:49;;;;;;;;;2.50;2.00;;;;;;;;6336876;22;45330;-78
2023/04/10 06:28:14;;;;;;;;;10.00;5.33;;;;;;;;6336941;22;45315;-78
2023/04/10 06:30:39;;;;;;;;;8.00;4.67;;;;;;;;6336235;22;45274;-78
2023/04/10 06:33:05;;;;;;;;;4.00;4.00;;;;;;;;6336361;22;45271;-78
2023/04/10 06:35:30;;;;;;;;;4.00;3.33;;;;;;;;6336623;22;45399;-78
2023/04/10 06:37:55;;;;;;;;;4.75;3.00;;;;;;;;6336156;22;46240;-79
2023/04/10 06:40:20;;;;;;;;;4.00;4.00;;;;;;;;6336625;22;45280;-78
2023/04/10 06:42:46;;;;;;;;;9.33;5.67;;;;;;;;6336753;22;45216;-79
2023/04/10 06:45:11;;;;;;;;;5.33;5.33;;;;;;;;6336511;22;45255;-78
2023/04/10 06:47:36;;;;;;;;;4.00;3.67;;;;;;;;6335755;22;45376;-79
2023/04/10 06:50:01;;;;;;;;;8.00;4.00;;;;;;;;6336354;22;45445;-78
2023/04/10 06:52:26;;;;;;;;;5.67;4.00;;;;;;;;6336863;22;45272;-79
2023/04/10 06:54:52;;;;;;;;;5.00;4.67;;;;;;;;6337102;22;45331;-79
2023/04/10 06:57:17;;;;;;;;;4.33;4.00;;;;;;;;6336569;22;45948;-78
2023/04/10 06:59:43;;;;;;;;;6.50;3.25;;;;;;;;6335814;22;45342;-79
2023/04/10 07:02:08;;;;;;;;;7.75;5.00;;;;;;;;6336703;22;45276;-78
2023/04/10 07:04:33;;;;;;;;;5.33;4.00;;;;;;;;6336568;22;45180;-79
2023/04/10 07:06:58;;;;;;;;;5.00;4.00;;;;;;;;6335842;22;45980;-78
2023/04/10 07:09:28;;;;;;;;;5.33;3.33;;;;;;;;6336267;22;45288;-79
2023/04/10 07:11:53;;;;;;;;;10.75;5.00;;;;;;;;6336968;22;45292;-78
2023/04/10 07:14:18;;;;;;;;;9.00;4.67;;;;;;;;6336263;22;45284;-78
2023/04/10 07:16:43;;;;;;;;;3.00;3.00;;;;;;;;6335998;22;45262;-78
2023/04/10 07:19:09;;;;;;;;;6.33;5.00;;;;;;;;6336500;22;45240;-78
2023/04/10 07:21:34;;;;;;;;;6.00;3.75;;;;;;;;6336695;22;45242;-78
2023/04/10 07:24:00;;;;;;;;;4.67;3.00;;;;;;;;6336212;22;45489;-78
2023/04/10 07:26:25;;;;;;;;;4.25;3.75;;;;;;;;6336603;22;45763;-78
2023/04/10 07:28:50;;;;;;;;;5.00;3.00;;;;;;;;6336621;22;45335;-78
2023/04/10 07:31:16;;;;;;;;;3.00;3.00;;;;;;;;6336130;22;45284;-78
2023/04/10 07:33:42;;;;;;;;;3.50;3.50;;;;;;;;6336360;22;45321;-78
2023/04/10 07:36:07;;;;;;;;;7.00;3.33;;;;;;;;6336648;22;46536;-78
2023/04/10 07:38:32;;;;;;;;;4.25;3.25;;;;;;;;6336580;22;45334;-78
2023/04/10 07:40:58;;;;;;;;;9.67;5.00;;;;;;;;6336690;22;45363;-78
2023/04/10 07:43:23;;;;;;;;;2.00;2.00;;;;;;;;6336864;22;45439;-78
2023/04/10 07:45:48;;;;;;;;;4.00;3.00;;;;;;;;6335918;22;45401;-78
2023/04/10 07:48:14;;;;;;;;;2.00;2.00;;;;;;;;6336105;22;45275;-78
2023/04/10 07:50:39;;;;;;;;;4.25;3.25;;;;;;;;6336073;22;45218;-78
2023/04/10 07:53:06;;;;;;;;;4.00;4.00;;;;;;;;6336015;22;45299;-78
2023/04/10 07:55:36;;;;;;;;;4.00;3.25;;;;;;;;6335942;22;47016;-78
2023/04/10 07:58:01;;;;;;;;;7.75;3.00;;;;;;;;6336412;22;45326;-78
2023/04/10 08:00:26;;;;;;;;;4.00;3.33;;;;;;;;6336428;22;45320;-78
2023/04/10 08:02:51;;;;;;;;;5.67;3.00;;;;;;;;6336199;22;45476;-78
2023/04/10 08:05:17;;;;;;;;;4.00;2.00;;;;;;;;6335960;22;46043;-78
2023/04/10 08:07:42;;;;;;;;;3.67;3.00;;;;;;;;6336589;22;45190;-79
2023/04/10 08:10:07;;;;;;;;;4.00;3.33;;;;;;;;6336759;22;45358;-78
2023/04/10 08:12:33;;;;;;;;;4.00;4.00;;;;;;;;6336318;22;45474;-78
2023/04/10 08:14:58;;;;;;;;;3.25;3.00;;;;;;;;6335516;22;46158;-78
2023/04/10 08:17:23;;;;;;;;;6.00;3.33;;;;;;;;6336602;22;45216;-78
2023/04/10 08:19:49;;;;;;;;;5.00;3.00;;;;;;;;6336472;22;45272;-79
2023/04/10 08:22:14;;;;;;;;;4.25;3.75;;;;;;;;6334535;22;45226;-79
2023/04/10 08:24:39;;;;;;;;;4.00;4.00;;;;;;;;6336511;22;45257;-79
2023/04/10 08:27:04;;;;;;;;;3.00;3.00;;;;;;;;6336352;22;45328;-78
2023/04/10 08:29:29;;;;;;;;;6.00;4.00;;;;;;;;6336059;22;45217;-78
2023/04/10 08:31:56;;;;;;;;;4.00;2.00;;;;;;;;6336034;22;45136;-78
2023/04/10 08:34:23;;;;;;;;;3.00;3.00;;;;;;;;6335968;22;46209;-78
2023/04/10 08:36:48;;;;;;;;;4.50;4.00;;;;;;;;6336500;22;45594;-78
2023/04/10 08:39:13;;;;;;;;;5.67;2.67;;;;;;;;6336581;22;45342;-78
2023/04/10 08:41:40;;;;;;;;;3.33;3.00;;;;;;;;6336436;22;45443;-78
2023/04/10 08:44:05;;;;;;;;;4.25;3.00;;;;;;;;6335955;22;45458;-78
2023/04/10 08:46:31;;;;;;;;;3.33;3.33;;;;;;;;6335822;22;45301;-78
2023/04/10 08:49:03;;;;;;;;;3.75;3.25;;;;;;;;6336031;22;45362;-78
2023/04/10 08:51:36;;;;;;;;;5.75;4.00;;;;;;;;6336505;22;45386;-78
2023/04/10 08:54:05;;;;;;;;;8.75;3.00;;;;;;;;6336334;22;45601;-79
2023/04/10 08:56:32;;;;;;;;;4.50;4.00;;;;;;;;6335860;22;45675;-78
2023/04/10 08:58:57;;;;;;;;;5.25;4.00;;;;;;;;6336223;22;45255;-79
2023/04/10 09:01:24;;;;;;;;;3.00;3.00;;;;;;;;6336486;22;45308;-78
2023/04/10 09:03:50;;;;;;;;;3.00;3.00;;;;;;;;6336971;22;45578;-78
2023/04/10 09:06:15;;;;;;;;;4.00;4.00;;;;;;;;6336143;22;45224;-79
2023/04/10 09:08:40;;;;;;;;;4.00;4.00;;;;;;;;6337240;22;45174;-79
2023/04/10 09:11:05;;;;;;;;;3.00;3.00;;;;;;;;6338837;22;45200;-79
2023/04/10 09:13:38;;;;;;;;;1.33;1.00;;;;;;;;6337650;22;46072;-78
2023/04/10 09:16:04;;;;;;;;;2.00;2.00;;;;;;;;6338470;22;45675;-79
2023/04/10 09:18:42;;;;;;;;;5.25;4.00;;;;;;;;6339514;22;45383;-78
2023/04/10 09:21:09;;;;;;;;;3.75;3.75;;;;;;;;6338384;22;45407;-79
2023/04/10 09:23:35;;;;;;;;;4.00;2.00;;;;;;;;6338547;22;47019;-79
2023/04/10 09:26:00;;;;;;;;;3.00;3.00;;;;;;;;6338456;22;45313;-78
2023/04/10 09:28:25;;;;;;;;;3.00;3.00;;;;;;;;6338407;22;45439;-78
2023/04/10 09:30:50;;;;;;;;;2.00;1.00;;;;;;;;6339431;22;45207;-78
2023/04/10 09:33:22;;;;;;;;;5.00;3.00;;;;;;;;6338596;22;45380;-78
2023/04/10 09:35:48;;;;;;;;;3.00;3.00;;;;;;;;6337875;22;45352;-79
2023/04/10 09:38:15;;;;;;;;;2.50;2.00;;;;;;;;6336453;22;45509;-79
2023/04/10 09:40:40;;;;;;;;;1.00;1.00;;;;;;;;6337216;22;45370;-78
2023/04/10 09:43:24;;;;;;;;;2.00;1.33;;;;;;;;6336809;22;46737;-79
2023/04/10 09:45:55;;;;;;;;;4.25;1.50;;;;;;;;6337526;22;45304;-79
2023/04/10 09:48:21;;;;;;;;;0.75;0.75;;;;;;;;6337459;22;45202;-78
2023/04/10 09:50:46;;;;;;;;;3.00;3.00;;;;;;;;6337217;22;45491;-79
2023/04/10 09:53:13;;;;;;;;;4.00;3.00;;;;;;;;6337168;22;46918;-78
2023/04/10 09:55:38;;;;;;;;;1.00;1.00;;;;;;;;6337689;22;45572;-78
2023/04/10 09:58:04;;;;;;;;;0.75;0.75;;;;;;;;6337977;22;45488;-79
2023/04/10 10:00:29;;;;;;;;;5.50;5.00;;;;;;;;6338201;22;45319;-79
2023/04/10 10:02:56;;;;;;;;;1.50;1.50;;;;;;;;6337363;22;46960;-79
2023/04/10 10:05:26;;;;;;;;;2.00;2.00;;;;;;;;6336872;22;45685;-78
2023/04/10 10:07:52;;;;;;;;;4.75;2.00;;;;;;;;6336909;22;45279;-78
2023/04/10 10:10:17;;;;;;;;;2.00;1.75;;;;;;;;6336476;22;45589;-79
2023/04/10 10:12:44;;;;;;;;;2.00;2.00;;;;;;;;6337001;22;45353;-79
2023/04/10 10:15:15;;;;;;;;;2.00;2.00;;;;;;;;6334813;22;45701;-78
2023/04/10 10:17:44;;;;;;;;;4.00;1.75;;;;;;;;6337029;22;45208;-79
2023/04/10 10:20:10;;;;;;;;;3.25;3.25;;;;;;;;6336535;22;45491;-79
2023/04/10 10:22:36;;;;;;;;;1.00;1.00;;;;;;;;6336999;22;45268;-78
2023/04/10 10:25:01;;;;;;;;;3.25;1.50;;;;;;;;6336662;22;45288;-79
2023/04/10 10:27:29;;;;;;;;;3.50;2.00;;;;;;;;6337037;22;45293;-79
2023/04/10 10:29:55;;;;;;;;;3.00;1.50;;;;;;;;6337027;22;45407;-79
2023/04/10 10:32:21;;;;;;;;;1.75;0.00;;;;;;;;6335738;22;45633;-78
2023/04/10 10:34:47;;;;;;;;;1.00;1.00;;;;;;;;6335726;22;45272;-78
2023/04/10 10:37:12;;;;;;;;;6.00;2.00;;;;;;;;6336708;22;45324;-79
2023/04/10 10:39:40;;;;;;;;;1.00;1.00;;;;;;;;6335871;22;45450;-78
2023/04/10 10:42:17;;;;;;;;;1.00;1.00;;;;;;;;6336782;22;46298;-79
2023/04/10 10:44:42;;;;;;;;;2.00;2.00;;;;;;;;6336745;22;45562;-78
2023/04/10 10:47:18;;;;;;;;;3.75;1.00;;;;;;;;6337201;22;45229;-79
2023/04/10 10:49:54;;;;;;;;;2.00;1.25;;;;;;;;6336626;22;45310;-78
2023/04/10 10:52:39;;;;;;;;;1.50;1.50;;;;;;;;6336436;22;46471;-78
2023/04/10 10:55:35;;;;;;;;;1.25;1.00;;;;;;;;6336507;22;45201;-79
2023/04/10 10:58:04;;;;;;;;;4.50;1.00;;;;;;;;6336880;22;45253;-79
2023/04/10 11:00:48;;;;;;;;;2.00;2.00;;;;;;;;6336538;22;45261;-79
2023/04/10 11:03:13;;;;;;;;;1.50;1.00;;;;;;;;6336265;22;45462;-78
2023/04/10 11:05:51;;;;;;;;;3.00;2.00;;;;;;;;6336792;22;45323;-79
2023/04/10 11:08:16;;;;;;;;;2.00;2.00;;;;;;;;6336030;22;45237;-78
2023/04/10 11:11:17;;;;;;;;;0.75;0.00;;;;;;;;6336491;22;45300;-79
2023/04/10 11:13:57;;;;;;;;;2.00;0.75;;;;;;;;6209051;22;46353;-79
2023/04/10 11:16:40;;;;;;;;;1.50;1.00;;;;;;;;6210193;22;45656;-79
2023/04/10 11:19:07;;;;;;;;;1.00;1.00;;;;;;;;6209698;22;45335;-78
2023/04/10 11:21:33;;;;;;;;;1.00;1.00;;;;;;;;6209930;22;45405;-79
2023/04/10 11:23:58;;;;;;;;;1.00;1.00;;;;;;;;6209486;22;46173;-79
2023/04/10 11:26:32;;;;;;;;;1.00;1.00;;;;;;;;6210013;22;45333;-79
2023/04/10 11:28:57;;;;;;;;;1.25;1.25;;;;;;;;6209918;22;45338;-78
2023/04/10 11:31:23;;;;;;;;;3.75;2.00;;;;;;;;6209555;22;45486;-79
2023/04/10 11:33:59;;;;;;;;;3.00;2.00;;;;;;;;6209189;22;47352;-78
2023/04/10 11:36:25;;;;;;;;;2.00;1.00;;;;;;;;6209664;22;45311;-79
2023/04/10 11:38:58;;;;;;;;;1.50;0.25;;;;;;;;6209417;22;45288;-78
2023/04/10 11:41:30;;;;;;;;;1.25;1.00;;;;;;;;6209636;22;45248;-78
2023/04/10 11:43:56;;;;;;;;;3.00;2.00;;;;;;;;6209409;22;46210;-79
2023/04/10 11:46:22;;;;;;;;;2.25;1.50;;;;;;;;6209881;22;45805;-78
2023/04/10 11:48:50;;;;;;;;;3.00;2.00;;;;;;;;6248899;22;45329;-78
2023/04/10 11:51:16;;;;;;;;;1.00;1.00;;;;;;;;6336910;22;45559;-78
2023/04/10 11:53:41;;;;;;;;;1.00;1.00;;;;;;;;6336245;22;45564;-78
2023/04/10 11:56:16;;;;;;;;;1.00;1.00;;;;;;;;6336373;22;45308;-78
2023/04/10 11:58:42;;;;;;;;;1.75;1.75;;;;;;;;6336667;22;45284;-78
2023/04/10 12:01:13;;;;;;;;;3.00;1.50;;;;;;;;6335758;22;45261;-79
2023/04/10 12:03:39;;;;;;;;;3.75;2.00;;;;;;;;6336574;22;45881;-78
2023/04/10 12:06:06;;;;;;;;;3.00;1.00;;;;;;;;6335679;22;45513;-78
2023/04/10 12:08:32;;;;;;;;;1.75;1.75;;;;;;;;6336173;22;45280;-78
2023/04/10 12:10:58;;;;;;;;;2.00;2.00;;;;;;;;6336691;22;45196;-78
2023/04/10 12:13:23;;;;;;;;;1.00;1.00;;;;;;;;6336438;22;45334;-78
2023/04/10 12:15:49;;;;;;;;;2.25;1.00;;;;;;;;6336411;22;45347;-79
2023/04/10 12:18:14;;;;;;;;;1.00;0.00;;;;;;;;6336616;22;45318;-79
2023/04/10 12:20:39;;;;;;;;;19.25;17.50;;;;;;;;6335431;22;45305;-79
2023/04/10 12:23:05;;;;;;;;;19.25;17.00;;;;;;;;6336295;22;46138;-79
2023/04/10 12:25:30;;;;;;;;;6.75;5.75;;;;;;;;6335982;22;45402;-79
2023/04/10 12:27:55;;;;;;;;;16.00;14.00;;;;;;;;6336270;22;45370;-78
2023/04/10 12:30:21;;;;;;;;;3.33;3.33;;;;;;;;6336360;22;45402;-79
2023/04/10 12:32:51;;;;;;;;;3.00;3.00;;;;;;;;6336093;22;45327;-78
2023/04/10 12:35:16;;;;;;;;;3.00;2.00;;;;;;;;6336038;22;45237;-79
2023/04/10 12:37:48;;;;;;;;;1.00;1.00;;;;;;;;6336542;22;45232;-78
2023/04/10 12:40:13;;;;;;;;;0.00;0.00;;;;;;;;6335884;22;45318;-78
2023/04/10 12:42:39;;;;;;;;;5.75;2.00;;;;;;;;6334338;22;47148;-78
2023/04/10 12:45:05;;;;;;;;;3.75;2.00;;;;;;;;6336146;22;45161;-78
2023/04/10 12:47:41;;;;;;;;;4.50;2.25;;;;;;;;6336135;22;45327;-78
2023/04/10 12:50:06;;;;;;;;;3.50;2.00;;;;;;;;6335968;22;45319;-78
2023/04/10 12:52:32;;;;;;;;;3.00;3.00;;;;;;;;6336033;22;45242;-78
2023/04/10 12:55:27;;;;;;;;;3.00;1.00;;;;;;;;6335804;22;45237;-78
2023/04/10 12:57:53;;;;;;;;;2.25;0.25;;;;;;;;6183528;22;45676;-78
2023/04/10 13:00:19;;;;;;;;;6.00;3.75;;;;;;;;6209040;22;45284;-78
2023/04/10 13:02:45;;;;;;;;;2.50;2.25;;;;;;;;6209462;22;45773;-78
2023/04/10 13:05:10;;;;;;;;;5.50;2.75;;;;;;;;6208302;22;45350;-78
2023/04/10 13:07:36;;;;;;;;;3.00;2.00;;;;;;;;6208866;22;45368;-78
2023/04/10 13:10:01;;;;;;;;;2.00;1.50;;;;;;;;6209325;22;45276;-78
2023/04/10 13:12:28;;;;;;;;;2.00;1.25;;;;;;;;6208440;22;46398;-78
2023/04/10 13:14:53;;;;;;;;;1.00;1.00;;;;;;;;6208934;22;45220;-78
2023/04/10 13:17:19;;;;;;;;;4.33;1.00;;;;;;;;6209466;22;45236;-78
2023/04/10 13:19:44;;;;;;;;;2.00;1.00;;;;;;;;6208197;22;45450;-78
2023/04/10 13:22:10;;;;;;;;;1.33;1.00;;;;;;;;6208795;22;45524;-79
2023/04/10 13:24:35;;;;;;;;;1.00;1.00;;;;;;;;6209446;22;45403;-78
2023/04/10 13:27:01;;;;;;;;;2.00;1.00;;;;;;;;6208545;22;45324;-78
2023/04/10 13:29:26;;;;;;;;;0.00;0.00;;;;;;;;6208834;22;45529;-78
2023/04/10 13:31:51;;;;;;;;;1.33;1.33;;;;;;;;6209099;22;45354;-78
2023/04/10 13:34:16;;;;;;;;;1.00;0.67;;;;;;;;6272674;22;45553;-79
2023/04/10 13:36:41;;;;;;;;;2.00;1.00;;;;;;;;6336045;22;45239;-78
2023/04/10 13:39:07;;;;;;;;;1.00;1.00;;;;;;;;6336017;22;45221;-78
2023/04/10 13:41:32;;;;;;;;;2.25;1.00;;;;;;;;6335716;22;46471;-79
2023/04/10 13:43:57;;;;;;;;;0.00;0.00;;;;;;;;6335332;22;45203;-79
2023/04/10 13:46:23;;;;;;;;;0.00;0.00;;;;;;;;6333910;22;45328;-79
2023/04/10 13:48:48;;;;;;;;;1.00;0.00;;;;;;;;6334915;22;45208;-79
2023/04/10 13:51:13;;;;;;;;;2.00;1.00;;;;;;;;6335489;22;45443;-78
2023/04/10 13:53:38;;;;;;;;;1.00;1.00;;;;;;;;6335226;22;45369;-78
2023/04/10 13:56:04;;;;;;;;;1.33;1.00;;;;;;;;6335845;22;45185;-78
2023/04/10 13:58:30;;;;;;;;;0.50;0.50;;;;;;;;6335247;22;45411;-79
2023/04/10 14:00:56;;;;;;;;;0.00;0.00;;;;;;;;6335574;22;45593;-78
2023/04/10 14:03:21;;;;;;;;;1.00;1.00;;;;;;;;6335001;22;45291;-78
2023/04/10 14:05:47;;;;;;;;;1.00;1.00;;;;;;;;6335269;22;45306;-78
2023/04/10 14:08:14;;;;;;;;;1.00;0.00;;;;;;;;6335257;22;45244;-78
2023/04/10 14:10:39;;;;;;;;;1.00;1.00;;;;;;;;6334996;22;46276;-78
2023/04/10 14:13:05;;;;;;;;;1.00;1.00;;;;;;;;6335005;22;45256;-79
2023/04/10 14:15:31;;;;;;;;;1.00;1.00;;;;;;;;6335125;22;45212;-79
2023/04/10 14:17:56;;;;;;;;;0.00;0.00;;;;;;;;6334406;22;45237;-78
2023/04/10 14:20:21;;;;;;;;;1.00;1.00;;;;;;;;6335349;22;46244;-78
2023/04/10 14:22:46;;;;;;;;;1.00;1.00;;;;;;;;6335422;22;45206;-78
2023/04/10 14:25:14;;;;;;;;;3.00;0.00;;;;;;;;6337248;22;45377;-78
2023/04/10 14:27:39;;;;;;;;;1.00;1.00;;;;;;;;6336749;22;45257;-78
2023/04/10 14:30:05;;;;;;;;;1.00;1.00;;;;;;;;6336900;22;46183;-78
2023/04/10 14:32:30;;;;;;;;;1.75;1.00;;;;;;;;6336412;22;45335;-79
2023/04/10 14:34:55;;;;;;;;;0.00;0.00;;;;;;;;6337153;22;45333;-79
2023/04/10 14:37:21;;;;;;;;;1.00;1.00;;;;;;;;6337054;22;45379;-79
2023/04/10 14:39:46;;;;;;;;;0.75;0.75;;;;;;;;6336163;22;46352;-79
2023/04/10 14:42:11;;;;;;;;;1.00;1.00;;;;;;;;6336937;22;45352;-79